sensor_id;sensor_type;location;lat;lon;timestamp;pressure;altitude;pressure_sealevel;temperature;humidity
52957;BME280;38819;42.692;23.342;2023-07-22T00:01:48;95188.91;;;27.78;44.65
52957;BME280;38819;42.692;23.342;2023-07-22T00:04:14;95186.91;;;27.78;44.76
52957;BME280;38819;42.692;23.342;2023-07-22T00:06:39;95190.50;;;27.79;45.11
52957;BME280;38819;42.692;23.342;2023-07-22T00:09:05;95200.00;;;27.78;45.20
52957;BME280;38819;42.692;23.342;2023-07-22T00:11:30;95201.63;;;27.68;45.51
52957;BME280;38819;42.692;23.342;2023-07-22T00:13:56;95208.81;;;27.62;45.81
52957;BME280;38819;42.692;23.342;2023-07-22T00:16:21;95207.22;;;27.61;45.62
52957;BME280;38819;42.692;23.342;2023-07-22T00:18:47;95208.03;;;27.58;45.98
52957;BME280;38819;42.692;23.342;2023-07-22T00:21:13;95202.09;;;27.59;45.86
52957;BME280;38819;42.692;23.342;2023-07-22T00:23:39;95194.97;;;27.54;46.35
52957;BME280;38819;42.692;23.342;2023-07-22T00:26:04;95198.53;;;27.51;46.35
52957;BME280;38819;42.692;23.342;2023-07-22T00:28:30;95196.19;;;27.53;46.71
52957;BME280;38819;42.692;23.342;2023-07-22T00:30:55;95196.16;;;27.57;46.99
52957;BME280;38819;42.692;23.342;2023-07-22T00:33:22;95197.75;;;27.51;47.02
52957;BME280;38819;42.692;23.342;2023-07-22T00:35:49;95207.28;;;27.50;47.15
52957;BME280;38819;42.692;23.342;2023-07-22T00:38:18;95204.09;;;27.48;47.14
52957;BME280;38819;42.692;23.342;2023-07-22T00:40:44;95194.63;;;27.45;47.16
52957;BME280;38819;42.692;23.342;2023-07-22T00:43:09;95195.78;;;27.48;46.53
52957;BME280;38819;42.692;23.342;2023-07-22T00:45:36;95194.63;;;27.45;46.47
52957;BME280;38819;42.692;23.342;2023-07-22T00:48:02;95205.72;;;27.45;46.69
52957;BME280;38819;42.692;23.342;2023-07-22T00:50:29;95205.75;;;27.34;46.55
52957;BME280;38819;42.692;23.342;2023-07-22T00:52:56;95214.47;;;27.37;46.29
52957;BME280;38819;42.692;23.342;2023-07-22T00:55:21;95211.69;;;27.26;46.43
52957;BME280;38819;42.692;23.342;2023-07-22T00:57:47;95225.16;;;27.27;46.63
52957;BME280;38819;42.692;23.342;2023-07-22T01:00:13;95207.75;;;27.27;46.60
52957;BME280;38819;42.692;23.342;2023-07-22T01:02:41;95210.50;;;27.27;46.57
52957;BME280;38819;42.692;23.342;2023-07-22T01:05:07;95206.97;;;27.19;47.12
52957;BME280;38819;42.692;23.342;2023-07-22T01:07:35;95199.06;;;27.14;47.27
52957;BME280;38819;42.692;23.342;2023-07-22T01:10:01;95198.28;;;27.13;47.34
52957;BME280;38819;42.692;23.342;2023-07-22T01:12:26;95183.22;;;27.14;47.30
52957;BME280;38819;42.692;23.342;2023-07-22T01:14:52;95189.97;;;27.13;47.46
52957;BME280;38819;42.692;23.342;2023-07-22T01:17:18;95193.53;;;26.99;47.94
52957;BME280;38819;42.692;23.342;2023-07-22T01:19:44;95193.94;;;26.94;47.83
52957;BME280;38819;42.692;23.342;2023-07-22T01:22:10;95198.72;;;26.94;48.23
52957;BME280;38819;42.692;23.342;2023-07-22T01:24:38;95208.22;;;26.96;48.12
52957;BME280;38819;42.692;23.342;2023-07-22T01:27:03;95195.97;;;26.79;48.71
52957;BME280;38819;42.692;23.342;2023-07-22T01:29:33;95194.00;;;26.69;49.19
52957;BME280;38819;42.692;23.342;2023-07-22T01:31:59;95181.75;;;26.70;49.12
52957;BME280;38819;42.692;23.342;2023-07-22T01:34:25;95184.53;;;26.67;49.00
52957;BME280;38819;42.692;23.342;2023-07-22T01:36:50;95186.06;;;26.57;49.13
52957;BME280;38819;42.692;23.342;2023-07-22T01:39:16;95178.94;;;26.56;49.36
52957;BME280;38819;42.692;23.342;2023-07-22T01:41:43;95177.00;;;26.42;49.26
52957;BME280;38819;42.692;23.342;2023-07-22T01:44:09;95176.22;;;26.41;49.62
52957;BME280;38819;42.692;23.342;2023-07-22T01:46:36;95190.84;;;26.35;50.00
52957;BME280;38819;42.692;23.342;2023-07-22T01:49:04;95186.09;;;26.39;49.72
52957;BME280;38819;42.692;23.342;2023-07-22T01:51:30;95177.78;;;26.35;49.81
52957;BME280;38819;42.692;23.342;2023-07-22T01:53:56;95180.13;;;26.26;50.28
52957;BME280;38819;42.692;23.342;2023-07-22T01:56:22;95173.81;;;26.25;50.24
52957;BME280;38819;42.692;23.342;2023-07-22T01:58:47;95171.06;;;26.15;50.77
52957;BME280;38819;42.692;23.342;2023-07-22T02:01:13;95173.84;;;26.15;50.77
52957;BME280;38819;42.692;23.342;2023-07-22T02:03:40;95157.63;;;26.10;50.86
52957;BME280;38819;42.692;23.342;2023-07-22T02:06:06;95168.66;;;26.06;51.36
52957;BME280;38819;42.692;23.342;2023-07-22T02:08:31;95161.16;;;26.06;51.31
52957;BME280;38819;42.692;23.342;2023-07-22T02:11:02;95166.28;;;26.01;51.53
52957;BME280;38819;42.692;23.342;2023-07-22T02:13:29;95171.44;;;25.99;51.39
52957;BME280;38819;42.692;23.342;2023-07-22T02:15:54;95173.03;;;25.96;51.68
52957;BME280;38819;42.692;23.342;2023-07-22T02:18:20;95171.44;;;25.95;51.22
52957;BME280;38819;42.692;23.342;2023-07-22T02:20:45;95170.19;;;25.89;51.84
52957;BME280;38819;42.692;23.342;2023-07-22T02:23:11;95179.69;;;25.92;51.69
52957;BME280;38819;42.692;23.342;2023-07-22T02:25:36;95182.47;;;25.92;52.08
52957;BME280;38819;42.692;23.342;2023-07-22T02:28:02;95181.25;;;25.82;52.65
52957;BME280;38819;42.692;23.342;2023-07-22T02:30:27;95182.03;;;25.82;52.51
52957;BME280;38819;42.692;23.342;2023-07-22T02:32:52;95190.34;;;25.75;52.81
52957;BME280;38819;42.692;23.342;2023-07-22T02:35:18;95188.34;;;25.76;52.68
52957;BME280;38819;42.692;23.342;2023-07-22T02:37:43;95189.94;;;25.73;52.86
52957;BME280;38819;42.692;23.342;2023-07-22T02:40:09;95196.25;;;25.70;52.78
52957;BME280;38819;42.692;23.342;2023-07-22T02:42:38;95182.41;;;25.70;53.11
52957;BME280;38819;42.692;23.342;2023-07-22T02:45:04;95182.03;;;25.72;53.01
52957;BME280;38819;42.692;23.342;2023-07-22T02:47:32;95184.03;;;25.71;53.16
52957;BME280;38819;42.692;23.342;2023-07-22T02:49:57;95187.19;;;25.69;53.38
52957;BME280;38819;42.692;23.342;2023-07-22T02:52:23;95189.94;;;25.80;53.21
52957;BME280;38819;42.692;23.342;2023-07-22T02:55:24;95193.88;;;25.68;53.60
52957;BME280;38819;42.692;23.342;2023-07-22T02:57:49;95182.78;;;25.58;53.61
52957;BME280;38819;42.692;23.342;2023-07-22T03:00:17;95192.66;;;25.59;53.78
52957;BME280;38819;42.692;23.342;2023-07-22T03:02:49;95192.66;;;25.59;53.83
52957;BME280;38819;42.692;23.342;2023-07-22T03:05:16;95187.88;;;25.48;54.45
52957;BME280;38819;42.692;23.342;2023-07-22T03:07:42;95187.50;;;25.54;53.96
52957;BME280;38819;42.692;23.342;2023-07-22T03:10:08;95192.66;;;25.51;54.34
52957;BME280;38819;42.692;23.342;2023-07-22T03:12:34;95190.28;;;25.57;54.08
52957;BME280;38819;42.692;23.342;2023-07-22T03:15:00;95193.81;;;25.47;54.94
52957;BME280;38819;42.692;23.342;2023-07-22T03:17:26;95191.03;;;25.47;54.62
52957;BME280;38819;42.692;23.342;2023-07-22T03:19:52;95196.59;;;25.50;54.70
52957;BME280;38819;42.692;23.342;2023-07-22T03:22:17;95198.94;;;25.45;54.91
52957;BME280;38819;42.692;23.342;2023-07-22T03:24:44;95192.19;;;25.42;55.22
52957;BME280;38819;42.692;23.342;2023-07-22T03:27:10;95200.50;;;25.46;55.09
52957;BME280;38819;42.692;23.342;2023-07-22T03:29:37;95192.97;;;25.36;55.31
52957;BME280;38819;42.692;23.342;2023-07-22T03:32:02;95202.50;;;25.49;55.08
52957;BME280;38819;42.692;23.342;2023-07-22T03:34:29;95210.78;;;25.49;55.20
52957;BME280;38819;42.692;23.342;2023-07-22T03:36:54;95214.78;;;25.59;54.90
52957;BME280;38819;42.692;23.342;2023-07-22T03:39:20;95218.31;;;25.56;56.50
52957;BME280;38819;42.692;23.342;2023-07-22T03:41:46;95218.72;;;25.54;56.48
52957;BME280;38819;42.692;23.342;2023-07-22T03:44:11;95226.19;;;25.43;55.83
52957;BME280;38819;42.692;23.342;2023-07-22T03:46:37;95228.47;;;25.26;55.80
52957;BME280;38819;42.692;23.342;2023-07-22T03:49:03;95224.88;;;25.26;55.65
52957;BME280;38819;42.692;23.342;2023-07-22T03:51:28;95234.41;;;25.28;55.00
52957;BME280;38819;42.692;23.342;2023-07-22T03:53:53;95230.88;;;25.28;55.12
52957;BME280;38819;42.692;23.342;2023-07-22T03:56:20;95232.06;;;25.34;54.61
52957;BME280;38819;42.692;23.342;2023-07-22T03:58:45;95243.13;;;25.34;54.32
52957;BME280;38819;42.692;23.342;2023-07-22T04:01:11;95238.41;;;25.38;54.45
52957;BME280;38819;42.692;23.342;2023-07-22T04:03:37;95250.25;;;25.42;54.28
52957;BME280;38819;42.692;23.342;2023-07-22T04:06:02;95245.19;;;25.51;54.02
52957;BME280;38819;42.692;23.342;2023-07-22T04:08:28;95245.97;;;25.59;53.55
52957;BME280;38819;42.692;23.342;2023-07-22T04:10:54;95243.66;;;25.65;53.57
52957;BME280;38819;42.692;23.342;2023-07-22T04:13:20;95251.97;;;25.72;53.34
52957;BME280;38819;42.692;23.342;2023-07-22T04:15:47;95245.66;;;25.79;53.27
52957;BME280;38819;42.692;23.342;2023-07-22T04:18:15;95244.88;;;25.82;53.24
52957;BME280;38819;42.692;23.342;2023-07-22T04:20:40;95246.44;;;25.76;53.02
52957;BME280;38819;42.692;23.342;2023-07-22T04:23:06;95249.25;;;25.86;52.88
52957;BME280;38819;42.692;23.342;2023-07-22T04:25:31;95238.19;;;25.90;53.44
52957;BME280;38819;42.692;23.342;2023-07-22T04:27:57;95244.19;;;26.03;53.04
52957;BME280;38819;42.692;23.342;2023-07-22T04:30:22;95244.19;;;26.06;53.10
52957;BME280;38819;42.692;23.342;2023-07-22T04:32:50;95258.03;;;26.10;53.12
52957;BME280;38819;42.692;23.342;2023-07-22T04:35:19;95255.69;;;26.23;53.20
52957;BME280;38819;42.692;23.342;2023-07-22T04:37:44;95261.63;;;26.32;52.83
52957;BME280;38819;42.692;23.342;2023-07-22T04:40:13;95266.78;;;26.34;52.63
52957;BME280;38819;42.692;23.342;2023-07-22T04:42:43;95267.97;;;26.40;52.23
52957;BME280;38819;42.692;23.342;2023-07-22T04:45:09;95264.00;;;26.37;52.51
52957;BME280;38819;42.692;23.342;2023-07-22T04:47:35;95265.19;;;26.33;52.86
52957;BME280;38819;42.692;23.342;2023-07-22T04:50:02;95260.84;;;26.42;52.16
52957;BME280;38819;42.692;23.342;2023-07-22T04:52:28;95254.91;;;26.48;52.77
52957;BME280;38819;42.692;23.342;2023-07-22T04:54:53;95251.75;;;26.49;52.65
52957;BME280;38819;42.692;23.342;2023-07-22T04:57:20;95256.91;;;26.51;52.58
52957;BME280;38819;42.692;23.342;2023-07-22T04:59:46;95264.81;;;26.56;52.43
52957;BME280;38819;42.692;23.342;2023-07-22T05:02:12;95271.97;;;26.64;52.75
52957;BME280;38819;42.692;23.342;2023-07-22T05:04:37;95271.97;;;26.64;51.88
52957;BME280;38819;42.692;23.342;2023-07-22T05:07:03;95279.88;;;26.66;51.70
52957;BME280;38819;42.692;23.342;2023-07-22T05:09:28;95283.44;;;26.66;53.14
52957;BME280;38819;42.692;23.342;2023-07-22T05:11:54;95285.41;;;26.66;52.96
52957;BME280;38819;42.692;23.342;2023-07-22T05:14:20;95275.53;;;26.72;53.11
52957;BME280;38819;42.692;23.342;2023-07-22T05:16:45;95282.63;;;26.55;53.72
52957;BME280;38819;42.692;23.342;2023-07-22T05:19:11;95279.44;;;26.42;54.13
52957;BME280;38819;42.692;23.342;2023-07-22T05:21:36;95287.34;;;26.47;53.86
52957;BME280;38819;42.692;23.342;2023-07-22T05:24:02;95279.44;;;26.42;54.27
52957;BME280;38819;42.692;23.342;2023-07-22T05:26:27;95286.16;;;26.37;54.62
52957;BME280;38819;42.692;23.342;2023-07-22T05:28:52;95281.44;;;26.41;54.67
52957;BME280;38819;42.692;23.342;2023-07-22T05:31:18;95292.47;;;26.38;55.21
52957;BME280;38819;42.692;23.342;2023-07-22T05:33:43;95290.09;;;26.33;55.29
52957;BME280;38819;42.692;23.342;2023-07-22T05:36:09;95283.78;;;26.39;54.79
52957;BME280;38819;42.692;23.342;2023-07-22T05:38:34;95294.06;;;26.35;54.44
52957;BME280;38819;42.692;23.342;2023-07-22T05:41:00;95293.69;;;26.48;54.27
52957;BME280;38819;42.692;23.342;2023-07-22T05:43:25;95290.16;;;26.61;54.26
52957;BME280;38819;42.692;23.342;2023-07-22T05:45:51;95292.50;;;26.49;55.54
52957;BME280;38819;42.692;23.342;2023-07-22T05:48:16;95293.69;;;26.44;55.33
52957;BME280;38819;42.692;23.342;2023-07-22T05:50:41;95291.34;;;26.50;55.02
52957;BME280;38819;42.692;23.342;2023-07-22T05:53:07;95289.72;;;26.56;55.18
52957;BME280;38819;42.692;23.342;2023-07-22T05:55:32;95284.19;;;26.59;55.23
52957;BME280;38819;42.692;23.342;2023-07-22T05:57:58;95281.09;;;26.68;55.28
52957;BME280;38819;42.692;23.342;2023-07-22T06:00:24;95282.66;;;26.80;54.25
52957;BME280;38819;42.692;23.342;2023-07-22T06:02:49;95290.97;;;26.91;54.37
52957;BME280;38819;42.692;23.342;2023-07-22T06:05:15;95289.00;;;26.95;54.31
52957;BME280;38819;42.692;23.342;2023-07-22T06:07:40;95296.91;;;26.96;54.09
52957;BME280;38819;42.692;23.342;2023-07-22T06:10:07;95301.66;;;27.03;53.66
52957;BME280;38819;42.692;23.342;2023-07-22T06:12:34;95315.09;;;26.94;54.19
52957;BME280;38819;42.692;23.342;2023-07-22T06:15:00;95315.50;;;26.92;54.07
52957;BME280;38819;42.692;23.342;2023-07-22T06:17:25;95319.84;;;27.01;54.22
52957;BME280;38819;42.692;23.342;2023-07-22T06:19:50;95321.44;;;26.91;54.52
52957;BME280;38819;42.692;23.342;2023-07-22T06:22:16;95320.63;;;26.76;55.24
52957;BME280;38819;42.692;23.342;2023-07-22T06:24:41;95316.66;;;26.59;56.33
52957;BME280;38819;42.692;23.342;2023-07-22T06:27:06;95325.78;;;26.74;55.94
52957;BME280;38819;42.692;23.342;2023-07-22T06:29:32;95329.34;;;26.78;56.37
52957;BME280;38819;42.692;23.342;2023-07-22T06:31:57;95328.16;;;26.79;56.04
52957;BME280;38819;42.692;23.342;2023-07-22T06:34:23;95325.41;;;26.90;55.57
52957;BME280;38819;42.692;23.342;2023-07-22T06:36:48;95332.94;;;27.04;55.06
52957;BME280;38819;42.692;23.342;2023-07-22T06:39:13;95340.03;;;27.15;55.21
52957;BME280;38819;42.692;23.342;2023-07-22T06:41:39;95346.75;;;27.18;55.61
52957;BME280;38819;42.692;23.342;2023-07-22T06:44:04;95336.09;;;27.20;55.06
52957;BME280;38819;42.692;23.342;2023-07-22T06:46:30;95338.06;;;27.16;55.15
52957;BME280;38819;42.692;23.342;2023-07-22T06:48:56;95338.88;;;27.16;55.36
52957;BME280;38819;42.692;23.342;2023-07-22T06:51:21;95341.63;;;27.24;55.30
52957;BME280;38819;42.692;23.342;2023-07-22T06:53:46;95326.59;;;27.32;54.90
52957;BME280;38819;42.692;23.342;2023-07-22T06:56:12;95322.63;;;27.29;55.58
52957;BME280;38819;42.692;23.342;2023-07-22T06:58:37;95318.66;;;27.34;55.33
52957;BME280;38819;42.692;23.342;2023-07-22T07:01:02;95315.84;;;27.45;55.10
52957;BME280;38819;42.692;23.342;2023-07-22T07:03:28;95313.06;;;27.56;55.07
52957;BME280;38819;42.692;23.342;2023-07-22T07:05:54;95320.16;;;27.67;55.01
52957;BME280;38819;42.692;23.342;2023-07-22T07:08:21;95320.16;;;27.67;54.54
52957;BME280;38819;42.692;23.342;2023-07-22T07:10:46;95317.31;;;27.85;54.11
52957;BME280;38819;42.692;23.342;2023-07-22T07:13:11;95315.31;;;27.93;54.22
52957;BME280;38819;42.692;23.342;2023-07-22T07:15:37;95315.28;;;28.07;53.24
52957;BME280;38819;42.692;23.342;2023-07-22T07:18:03;95314.03;;;28.16;52.88
52957;BME280;38819;42.692;23.342;2023-07-22T07:20:28;95306.44;;;28.27;52.68
52957;BME280;38819;42.692;23.342;2023-07-22T07:22:53;95315.94;;;28.30;52.60
52957;BME280;38819;42.692;23.342;2023-07-22T07:25:19;95300.09;;;28.26;51.87
52957;BME280;38819;42.692;23.342;2023-07-22T07:27:44;95310.47;;;28.12;51.79
52957;BME280;38819;42.692;23.342;2023-07-22T07:30:10;95301.84;;;27.99;52.03
52957;BME280;38819;42.692;23.342;2023-07-22T07:32:36;95305.03;;;27.83;52.14
52957;BME280;38819;42.692;23.342;2023-07-22T07:35:02;95308.59;;;27.90;52.01
52957;BME280;38819;42.692;23.342;2023-07-22T07:37:29;95306.19;;;27.96;52.40
52957;BME280;38819;42.692;23.342;2023-07-22T07:39:54;95299.00;;;28.06;51.92
52957;BME280;38819;42.692;23.342;2023-07-22T07:42:25;95295.38;;;28.16;51.96
52957;BME280;38819;42.692;23.342;2023-07-22T07:44:50;95293.00;;;28.18;51.65
52957;BME280;38819;42.692;23.342;2023-07-22T07:47:16;95300.91;;;28.27;51.50
52957;BME280;38819;42.692;23.342;2023-07-22T07:49:41;95298.09;;;28.31;51.86
52957;BME280;38819;42.692;23.342;2023-07-22T07:52:06;95291.31;;;28.35;51.39
52957;BME280;38819;42.692;23.342;2023-07-22T07:54:32;95290.91;;;28.40;51.29
52957;BME280;38819;42.692;23.342;2023-07-22T07:56:57;95286.03;;;28.55;51.05
52957;BME280;38819;42.692;23.342;2023-07-22T07:59:22;95286.34;;;28.68;50.50
52957;BME280;38819;42.692;23.342;2023-07-22T08:01:48;95287.91;;;28.73;50.54
52957;BME280;38819;42.692;23.342;2023-07-22T08:04:13;95291.41;;;28.84;50.19
52957;BME280;38819;42.692;23.342;2023-07-22T08:06:39;95284.94;;;28.94;49.52
52957;BME280;38819;42.692;23.342;2023-07-22T08:09:04;95282.91;;;29.02;49.64
52957;BME280;38819;42.692;23.342;2023-07-22T08:11:31;95285.66;;;29.06;49.79
52957;BME280;38819;42.692;23.342;2023-07-22T08:13:56;95290.75;;;29.11;50.09
52957;BME280;38819;42.692;23.342;2023-07-22T08:16:22;95283.59;;;29.17;50.33
52957;BME280;38819;42.692;23.342;2023-07-22T08:18:47;95283.97;;;29.19;49.74
52957;BME280;38819;42.692;23.342;2023-07-22T08:21:13;95277.59;;;29.18;49.72
52957;BME280;38819;42.692;23.342;2023-07-22T08:23:38;95278.38;;;29.23;49.53
52957;BME280;38819;42.692;23.342;2023-07-22T08:26:05;95286.69;;;29.23;49.28
52957;BME280;38819;42.692;23.342;2023-07-22T08:28:31;95277.53;;;29.26;49.44
52957;BME280;38819;42.692;23.342;2023-07-22T08:30:57;95276.22;;;29.37;49.07
52957;BME280;38819;42.692;23.342;2023-07-22T08:33:23;95273.53;;;29.30;50.00
52957;BME280;38819;42.692;23.342;2023-07-22T08:35:52;95266.38;;;29.29;50.04
52957;BME280;38819;42.692;23.342;2023-07-22T08:38:18;95257.63;;;29.31;49.05
52957;BME280;38819;42.692;23.342;2023-07-22T08:40:43;95252.34;;;29.40;48.92
52957;BME280;38819;42.692;23.342;2023-07-22T08:43:10;95249.84;;;29.49;48.78
52957;BME280;38819;42.692;23.342;2023-07-22T08:45:38;95245.22;;;29.39;49.45
52957;BME280;38819;42.692;23.342;2023-07-22T08:48:06;95238.47;;;29.36;49.37
52957;BME280;38819;42.692;23.342;2023-07-22T08:50:45;95234.81;;;29.43;50.08
52957;BME280;38819;42.692;23.342;2023-07-22T08:53:14;95231.56;;;29.48;49.80
52957;BME280;38819;42.692;23.342;2023-07-22T08:55:41;95234.66;;;29.58;49.43
52957;BME280;38819;42.692;23.342;2023-07-22T08:58:10;95232.16;;;29.67;48.29
52957;BME280;38819;42.692;23.342;2023-07-22T09:00:37;95225.03;;;29.66;48.40
52957;BME280;38819;42.692;23.342;2023-07-22T09:03:03;95223.78;;;29.70;48.43
52957;BME280;38819;42.692;23.342;2023-07-22T09:05:31;95225.69;;;29.73;48.05
52957;BME280;38819;42.692;23.342;2023-07-22T09:07:58;95219.69;;;29.79;47.76
52957;BME280;38819;42.692;23.342;2023-07-22T09:10:27;95215.44;;;29.70;47.29
52957;BME280;38819;42.692;23.342;2023-07-22T09:12:53;95222.19;;;29.69;47.37
52957;BME280;38819;42.692;23.342;2023-07-22T09:15:18;95228.06;;;29.75;47.65
52957;BME280;38819;42.692;23.342;2023-07-22T09:17:44;95224.78;;;29.87;47.00
52957;BME280;38819;42.692;23.342;2023-07-22T09:20:11;95217.50;;;29.93;46.90
52957;BME280;38819;42.692;23.342;2023-07-22T09:22:46;95216.72;;;29.93;46.92
52957;BME280;38819;42.692;23.342;2023-07-22T09:25:25;95217.03;;;29.99;47.03
52957;BME280;38819;42.692;23.342;2023-07-22T09:27:53;95211.44;;;30.02;46.62
52957;BME280;38819;42.692;23.342;2023-07-22T09:30:31;95210.50;;;30.13;46.36
52957;BME280;38819;42.692;23.342;2023-07-22T09:32:59;95214.34;;;30.22;46.55
52957;BME280;38819;42.692;23.342;2023-07-22T09:35:27;95209.84;;;30.28;46.66
52957;BME280;38819;42.692;23.342;2023-07-22T09:37:54;95201.38;;;30.39;46.73
52957;BME280;38819;42.692;23.342;2023-07-22T09:40:27;95204.31;;;30.52;45.67
52957;BME280;38819;42.692;23.342;2023-07-22T09:42:54;95202.56;;;30.62;44.76
52957;BME280;38819;42.692;23.342;2023-07-22T09:45:22;95198.16;;;30.64;44.99
52957;BME280;38819;42.692;23.342;2023-07-22T09:47:49;95186.47;;;30.50;44.75
52957;BME280;38819;42.692;23.342;2023-07-22T09:50:17;95196.84;;;30.49;44.93
52957;BME280;38819;42.692;23.342;2023-07-22T09:52:51;95185.72;;;30.45;45.12
52957;BME280;38819;42.692;23.342;2023-07-22T09:55:23;95188.91;;;30.47;44.90
52957;BME280;38819;42.692;23.342;2023-07-22T09:57:53;95187.59;;;30.52;44.92
52957;BME280;38819;42.692;23.342;2023-07-22T10:00:19;95177.97;;;30.57;44.51
52957;BME280;38819;42.692;23.342;2023-07-22T10:02:48;95176.72;;;30.61;45.01
52957;BME280;38819;42.692;23.342;2023-07-22T10:05:18;95180.47;;;30.75;43.96
52957;BME280;38819;42.692;23.342;2023-07-22T10:07:55;95182.19;;;30.89;43.20
52957;BME280;38819;42.692;23.342;2023-07-22T10:10:35;95175.63;;;31.02;42.40
52957;BME280;38819;42.692;23.342;2023-07-22T10:13:03;95177.97;;;31.04;42.75
52957;BME280;38819;42.692;23.342;2023-07-22T10:15:30;95170.59;;;31.14;42.32
52957;BME280;38819;42.692;23.342;2023-07-22T10:17:57;95179.97;;;31.24;42.45
52957;BME280;38819;42.692;23.342;2023-07-22T10:20:23;95175.91;;;31.28;42.55
52957;BME280;38819;42.692;23.342;2023-07-22T10:22:49;95168.97;;;31.36;40.11
52957;BME280;38819;42.692;23.342;2023-07-22T10:25:17;95157.31;;;31.42;39.94
52957;BME280;38819;42.692;23.342;2023-07-22T10:27:43;95170.69;;;31.50;39.99
52957;BME280;38819;42.692;23.342;2023-07-22T10:30:13;95159.84;;;31.56;39.50
52957;BME280;38819;42.692;23.342;2023-07-22T10:32:44;95152.50;;;31.62;39.90
52957;BME280;38819;42.692;23.342;2023-07-22T10:35:12;95166.16;;;31.76;40.67
52957;BME280;38819;42.692;23.342;2023-07-22T10:37:44;95168.44;;;31.82;38.88
52957;BME280;38819;42.692;23.342;2023-07-22T10:40:29;95160.63;;;31.93;38.69
52957;BME280;38819;42.692;23.342;2023-07-22T10:43:00;95158.94;;;31.95;39.34
52957;BME280;38819;42.692;23.342;2023-07-22T10:45:29;95157.50;;;32.07;37.55
52957;BME280;38819;42.692;23.342;2023-07-22T10:48:13;95155.44;;;32.11;36.00
52957;BME280;38819;42.692;23.342;2023-07-22T10:50:44;95164.28;;;32.26;36.51
52957;BME280;38819;42.692;23.342;2023-07-22T10:53:27;95154.84;;;32.37;35.71
52957;BME280;38819;42.692;23.342;2023-07-22T10:56:21;95142.59;;;32.47;36.34
52957;BME280;38819;42.692;23.342;2023-07-22T11:14:26;95130.78;;;32.89;35.09
52957;BME280;38819;42.692;23.342;2023-07-22T11:16:51;95133.03;;;32.94;34.97
52957;BME280;38819;42.692;23.342;2023-07-22T11:19:19;95129.44;;;32.93;35.10
52957;BME280;38819;42.692;23.342;2023-07-22T11:21:46;95124.88;;;32.99;34.60
52957;BME280;38819;42.692;23.342;2023-07-22T11:24:12;95135.00;;;33.10;34.41
52957;BME280;38819;42.692;23.342;2023-07-22T11:26:38;95115.75;;;33.12;34.07
52957;BME280;38819;42.692;23.342;2023-07-22T11:29:05;95111.88;;;33.22;33.87
52957;BME280;38819;42.692;23.342;2023-07-22T11:31:37;95121.41;;;33.24;33.75
52957;BME280;38819;42.692;23.342;2023-07-22T11:34:06;95124.13;;;33.28;33.38
52957;BME280;38819;42.692;23.342;2023-07-22T11:36:31;95127.59;;;33.32;33.81
52957;BME280;38819;42.692;23.342;2023-07-22T11:39:05;95106.34;;;33.35;33.46
52957;BME280;38819;42.692;23.342;2023-07-22T11:41:32;95101.84;;;33.37;33.71
52957;BME280;38819;42.692;23.342;2023-07-22T11:43:59;95109.69;;;33.42;34.01
52957;BME280;38819;42.692;23.342;2023-07-22T11:46:25;95095.69;;;33.42;34.50
52957;BME280;38819;42.692;23.342;2023-07-22T11:48:52;95096.50;;;33.43;34.23
52957;BME280;38819;42.692;23.342;2023-07-22T11:51:20;95097.16;;;33.47;33.80
52957;BME280;38819;42.692;23.342;2023-07-22T11:53:47;95083.81;;;33.51;34.15
52957;BME280;38819;42.692;23.342;2023-07-22T11:56:20;95088.66;;;33.51;33.90
52957;BME280;38819;42.692;23.342;2023-07-22T11:58:56;95087.66;;;33.57;33.71
52957;BME280;38819;42.692;23.342;2023-07-22T12:01:23;95086.44;;;33.58;34.20
52957;BME280;38819;42.692;23.342;2023-07-22T12:03:54;95093.03;;;33.65;34.72
52957;BME280;38819;42.692;23.342;2023-07-22T12:06:20;95106.03;;;33.71;34.00
52957;BME280;38819;42.692;23.342;2023-07-22T12:08:47;95084.66;;;33.77;33.82
52957;BME280;38819;42.692;23.342;2023-07-22T12:11:24;95095.63;;;33.85;34.27
52957;BME280;38819;42.692;23.342;2023-07-22T12:14:04;95086.78;;;33.86;33.81
52957;BME280;38819;42.692;23.342;2023-07-22T12:16:31;95077.72;;;33.95;33.94
52957;BME280;38819;42.692;23.342;2023-07-22T12:18:56;95083.53;;;33.88;33.73
52957;BME280;38819;42.692;23.342;2023-07-22T12:21:22;95079.41;;;33.92;33.86
52957;BME280;38819;42.692;23.342;2023-07-22T12:23:47;95075.50;;;33.90;33.55
52957;BME280;38819;42.692;23.342;2023-07-22T12:26:13;95081.75;;;33.94;33.96
52957;BME280;38819;42.692;23.342;2023-07-22T12:28:39;95072.97;;;34.05;33.41
52957;BME280;38819;42.692;23.342;2023-07-22T12:31:04;95077.81;;;34.04;33.99
52957;BME280;38819;42.692;23.342;2023-07-22T12:33:29;95075.13;;;34.01;33.67
52957;BME280;38819;42.692;23.342;2023-07-22T12:35:57;95073.09;;;34.01;33.20
52957;BME280;38819;42.692;23.342;2023-07-22T12:38:23;95067.94;;;34.00;33.19
52957;BME280;38819;42.692;23.342;2023-07-22T12:40:48;95072.91;;;33.95;33.50
52957;BME280;38819;42.692;23.342;2023-07-22T12:43:14;95069.75;;;33.93;33.31
52957;BME280;38819;42.692;23.342;2023-07-22T12:45:39;95062.78;;;33.98;32.91
52957;BME280;38819;42.692;23.342;2023-07-22T12:48:05;95066.28;;;34.02;33.47
52957;BME280;38819;42.692;23.342;2023-07-22T12:50:31;95057.09;;;34.02;33.58
52957;BME280;38819;42.692;23.342;2023-07-22T12:52:57;95050.56;;;34.05;33.59
52957;BME280;38819;42.692;23.342;2023-07-22T12:55:23;95050.03;;;34.10;34.07
52957;BME280;38819;42.692;23.342;2023-07-22T12:57:48;95065.81;;;34.17;32.87
52957;BME280;38819;42.692;23.342;2023-07-22T13:00:14;95060.91;;;34.21;32.16
52957;BME280;38819;42.692;23.342;2023-07-22T13:02:39;95047.19;;;34.23;32.13
52957;BME280;38819;42.692;23.342;2023-07-22T13:05:05;95044.72;;;34.25;32.58